Time;durP1;ratioP1;P1;durP2;ratioP2;P2;SDS_P1;SDS_P2;PMS_P1;PMS_P2;Temp;Humidity;BMP_temperature;BMP_pressure;BME280_temperature;BME280_humidity;BME280_pressure;Samples;Min_cycle;Max_cycle;Signal;HPM_P1;HPM_P2
2021/05/13 00:01:38;;;;;;;1999.90;999.90;;;;;;;16.28;97.03;96945.25;5008573;28;20058;-66
2021/05/13 00:04:05;;;;;;;1999.90;999.90;;;;;;;16.29;97.63;96939.28;5009484;28;20042;-66
2021/05/13 00:06:32;;;;;;;1999.90;999.90;;;;;;;16.41;96.48;96926.94;5006504;28;20481;-66
2021/05/13 00:08:58;;;;;;;1999.90;999.90;;;;;;;16.63;95.46;96926.91;5007797;28;20120;-66
2021/05/13 00:11:30;;;;;;;1999.90;999.90;;;;;;;16.52;95.10;96922.16;5016957;28;20053;-67
2021/05/13 00:13:59;;;;;;;1999.90;999.90;;;;;;;16.48;96.13;96918.56;5018545;28;20106;-66
2021/05/13 00:16:30;;;;;;;1999.90;999.90;;;;;;;16.57;95.53;96928.50;5013287;28;20449;-66
2021/05/13 00:18:59;;;;;;;1999.90;999.90;;;;;;;16.76;94.24;96930.09;5008428;28;20042;-66
2021/05/13 00:21:25;;;;;;;1999.90;999.90;;;;;;;16.65;94.15;96928.09;5019036;28;20115;-66
2021/05/13 00:23:53;;;;;;;1999.90;999.90;;;;;;;16.68;93.65;96926.50;5004799;28;20056;-66
2021/05/13 00:26:34;;;;;;;1999.90;999.90;;;;;;;16.53;94.50;96922.94;5006700;28;20045;-66
2021/05/13 00:29:06;;;;;;;1999.90;999.90;;;;;;;16.37;95.04;96915.78;5018086;28;20436;-66
2021/05/13 00:31:34;;;;;;;1999.90;999.90;;;;;;;16.25;95.64;96923.75;5004678;28;20058;-66
2021/05/13 00:34:01;;;;;;;1999.90;999.90;;;;;;;16.48;94.87;96926.13;5011835;28;20049;-66
2021/05/13 00:36:32;;;;;;;1999.90;999.90;;;;;;;16.62;93.95;96920.53;5012767;28;20082;-66
2021/05/13 00:39:06;;;;;;;1999.90;999.90;;;;;;;16.82;92.55;96918.13;5007632;28;20046;-66
2021/05/13 00:41:32;;;;;;;1999.90;999.90;;;;;;;16.91;91.91;96920.50;5009254;28;20046;-67
2021/05/13 00:43:59;;;;;;;1999.90;999.90;;;;;;;17.01;90.87;96913.31;5016160;28;20429;-67
2021/05/13 00:46:26;;;;;;;1999.90;999.90;;;;;;;17.06;90.72;96921.28;5018099;28;20050;-67
2021/05/13 00:49:01;;;;;;;1999.90;999.90;;;;;;;17.06;90.23;96915.72;5023112;28;20045;-66
2021/05/13 00:51:28;;;;;;;1999.90;999.90;;;;;;;17.17;89.76;96921.25;5019475;28;20107;-67
2021/05/13 00:53:55;;;;;;;1999.90;999.90;;;;;;;17.15;89.77;96918.88;5019268;28;20056;-67
2021/05/13 00:56:23;;;;;;;1999.90;999.90;;;;;;;17.11;89.70;96912.47;5028219;28;20045;-66
2021/05/13 00:58:51;;;;;;;1999.90;999.90;;;;;;;17.03;90.00;96910.91;5029121;28;20053;-66
2021/05/13 01:01:20;;;;;;;1999.90;999.90;;;;;;;17.05;90.09;96908.53;5028281;28;20477;-67
2021/05/13 01:03:47;;;;;;;1999.90;999.90;;;;;;;17.06;89.81;96910.13;5028115;28;20053;-66
2021/05/13 01:06:15;;;;;;;1999.90;999.90;;;;;;;16.96;90.20;96902.56;5022043;28;20045;-67
2021/05/13 01:08:42;;;;;;;1999.90;999.90;;;;;;;16.87;90.40;96903.78;5028255;28;20050;-66
2021/05/13 01:11:12;;;;;;;1999.90;999.90;;;;;;;16.68;91.70;96899.41;5028405;28;20049;-66
2021/05/13 01:16:50;;;;;;;1999.90;999.90;;;;;;;16.70;91.53;96896.22;5024618;28;20104;-66
2021/05/13 01:19:18;;;;;;;1999.90;999.90;;;;;;;16.59;92.03;96904.59;5029881;28;20045;-66
2021/05/13 01:21:45;;;;;;;1999.90;999.90;;;;;;;16.55;92.24;96898.22;5034871;28;20155;-66
2021/05/13 01:24:12;;;;;;;1999.90;999.90;;;;;;;16.45;92.83;96893.44;5026385;28;20396;-66
2021/05/13 01:26:43;;;;;;;1999.90;999.90;;;;;;;16.88;90.92;96898.97;5023245;28;20131;-67
2021/05/13 01:29:12;;;;;;;1999.90;999.90;;;;;;;17.00;89.51;96889.38;5033331;28;20497;-67
2021/05/13 01:31:39;;;;;;;1999.90;999.90;;;;;;;17.13;88.50;96886.94;5019568;28;20057;-66
2021/05/13 01:34:07;;;;;;;1999.90;999.90;;;;;;;17.02;88.74;96878.63;5021969;28;20128;-67
2021/05/13 01:36:34;;;;;;;1999.90;999.90;;;;;;;16.75;90.32;96890.22;5028399;28;20042;-66
2021/05/13 01:39:04;;;;;;;1999.90;999.90;;;;;;;16.81;90.55;96880.25;5023929;28;20052;-66
2021/05/13 01:41:30;;;;;;;1999.90;999.90;;;;;;;16.94;89.80;96879.84;5026574;28;20403;-66
2021/05/13 01:43:57;;;;;;;1999.90;999.90;;;;;;;17.01;89.76;96877.03;5030042;28;20119;-66
2021/05/13 01:46:23;;;;;;;1999.90;999.90;;;;;;;16.92;89.92;96871.06;5024818;28;20111;-65
2021/05/13 01:48:50;;;;;;;1999.90;999.90;;;;;;;16.87;90.37;96870.28;5019164;28;20049;-66
2021/05/13 01:51:17;;;;;;;1999.90;999.90;;;;;;;16.87;90.34;96863.91;5028017;28;20055;-66
2021/05/13 01:53:44;;;;;;;1999.90;999.90;;;;;;;16.39;92.42;96867.97;5022908;28;20057;-66
2021/05/13 01:56:12;;;;;;;1999.90;999.90;;;;;;;16.16;94.13;96855.22;5029052;28;20095;-66
2021/05/13 01:58:39;;;;;;;1999.90;999.90;;;;;;;16.00;95.13;96849.25;5023114;28;20468;-66
2021/05/13 02:01:09;;;;;;;1999.90;999.90;;;;;;;15.98;95.60;96843.28;5025620;28;20080;-66
2021/05/13 02:03:37;;;;;;;1999.90;999.90;;;;;;;16.01;96.06;96836.91;5018133;28;20048;-66
2021/05/13 02:06:04;;;;;;;1999.90;999.90;;;;;;;15.86;96.39;96832.53;5023892;28;20096;-66
2021/05/13 02:08:31;;;;;;;1999.90;999.90;;;;;;;15.79;97.25;96834.13;5025931;28;20053;-66
2021/05/13 02:10:58;;;;;;;1999.90;999.90;;;;;;;16.15;95.50;96836.91;5017135;28;20511;-66
2021/05/13 02:13:25;;;;;;;1999.90;999.90;;;;;;;16.27;94.06;96830.13;5026638;28;20118;-66
2021/05/13 02:15:52;;;;;;;1999.90;999.90;;;;;;;15.91;96.41;96832.13;5025349;28;20130;-66
2021/05/13 02:18:20;;;;;;;1999.90;999.90;;;;;;;15.53;99.35;96826.91;5022527;28;20053;-66
2021/05/13 02:20:48;;;;;;;1999.90;999.90;;;;;;;15.36;100.00;96830.44;5027300;28;20183;-66
2021/05/13 02:23:15;;;;;;;1999.90;999.90;;;;;;;15.28;100.00;96816.50;5026141;28;20041;-65
2021/05/13 02:25:44;;;;;;;1999.90;999.90;;;;;;;15.25;100.00;96811.72;5025024;28;20045;-66
2021/05/13 02:28:11;;;;;;;1999.90;999.90;;;;;;;15.26;100.00;96813.31;5029048;28;20045;-66
2021/05/13 02:30:38;;;;;;;1999.90;999.90;;;;;;;15.65;100.00;96792.31;5022221;28;20107;-66
2021/05/13 02:33:05;;;;;;;1999.90;999.90;;;;;;;15.00;100.00;96803.31;5027653;28;20489;-65
2021/05/13 02:35:32;;;;;;;1999.90;999.90;;;;;;;14.90;100.00;96790.97;5024463;28;20112;-65
2021/05/13 02:37:59;;;;;;;1999.90;999.90;;;;;;;15.43;100.00;96792.25;5020568;28;20053;-66
2021/05/13 02:40:26;;;;;;;1999.90;999.90;;;;;;;15.63;100.00;96797.44;5017001;28;20120;-66
2021/05/13 02:42:52;;;;;;;1999.90;999.90;;;;;;;15.67;100.00;96796.28;5024890;28;20049;-66
2021/05/13 02:45:19;;;;;;;1999.90;999.90;;;;;;;15.38;100.00;96805.78;5024608;28;20061;-65
2021/05/13 02:47:45;;;;;;;1999.90;999.90;;;;;;;15.18;100.00;96805.34;5024122;28;20476;-65
2021/05/13 02:50:14;;;;;;;1999.90;999.90;;;;;;;15.55;100.00;96802.22;5023575;28;20504;-66
2021/05/13 02:52:41;;;;;;;1999.90;999.90;;;;;;;15.44;100.00;96804.22;5018152;28;20383;-66
2021/05/13 02:55:09;;;;;;;1999.90;999.90;;;;;;;15.58;100.00;96804.22;5011455;28;20046;-66
2021/05/13 02:57:36;;;;;;;1999.90;999.90;;;;;;;15.57;100.00;96804.63;5025758;28;20103;-66
2021/05/13 03:02:51;;;;;;;1999.90;999.90;;;;;;;16.19;99.97;96801.44;5016528;28;20092;-66
2021/05/13 03:05:19;;;;;;;1999.90;999.90;;;;;;;16.18;99.22;96797.09;5024428;28;20053;-66
2021/05/13 03:07:52;;;;;;;1999.90;999.90;;;;;;;16.26;98.38;96799.88;5017683;28;20041;-66
2021/05/13 03:10:26;;;;;;;1999.90;999.90;;;;;;;16.48;97.82;96795.81;5009455;28;20049;-66
2021/05/13 03:12:55;;;;;;;1999.90;999.90;;;;;;;16.28;97.80;96794.66;5024582;28;20053;-66
2021/05/13 03:15:22;;;;;;;1999.90;999.90;;;;;;;15.90;100.00;96794.31;5018314;28;20050;-66
2021/05/13 03:17:50;;;;;;;1999.90;999.90;;;;;;;15.40;100.00;96787.50;5027330;28;20417;-65
2021/05/13 03:20:20;;;;;;;1999.90;999.90;;;;;;;15.52;100.00;96779.94;5018829;28;20141;-65
2021/05/13 03:22:51;;;;;;;1999.90;999.90;;;;;;;15.75;100.00;96772.00;5018260;28;20066;-66
2021/05/13 03:25:24;;;;;;;1999.90;999.90;;;;;;;16.00;100.00;96769.22;5016469;28;20463;-66
2021/05/13 03:27:55;;;;;;;1999.90;999.90;;;;;;;15.94;100.00;96764.44;5023258;28;20045;-65
2021/05/13 03:30:24;;;;;;;1999.90;999.90;;;;;;;15.67;100.00;96767.63;5022808;28;20041;-66
2021/05/13 03:32:54;;;;;;;1999.90;999.90;;;;;;;15.53;100.00;96756.47;5015755;28;20053;-66
2021/05/13 03:35:21;;;;;;;1999.90;999.90;;;;;;;15.80;100.00;96760.47;5024334;28;20412;-66
2021/05/13 03:37:47;;;;;;;1999.90;999.90;;;;;;;15.94;100.00;96753.31;5025472;28;20475;-66
2021/05/13 03:40:14;;;;;;;1999.90;999.90;;;;;;;15.90;100.00;96753.31;5019098;28;20116;-66
2021/05/13 03:42:40;;;;;;;1999.90;999.90;;;;;;;15.79;100.00;96747.72;5024265;28;20111;-66
2021/05/13 03:45:07;;;;;;;1999.90;999.90;;;;;;;15.64;100.00;96752.47;5023210;28;20084;-66
2021/05/13 03:47:34;;;;;;;1999.90;999.90;;;;;;;15.92;100.00;96747.34;5021946;28;20038;-66
2021/05/13 03:50:00;;;;;;;1999.90;999.90;;;;;;;15.99;100.00;96741.75;5028036;28;20045;-66
2021/05/13 03:52:27;;;;;;;1999.90;999.90;;;;;;;15.65;100.00;96742.16;5020309;28;20558;-66
2021/05/13 03:54:54;;;;;;;1999.90;999.90;;;;;;;15.80;100.00;96749.31;5014012;28;20100;-66
2021/05/13 03:57:20;;;;;;;1999.90;999.90;;;;;;;16.08;100.00;96747.72;5022031;28;20100;-66
2021/05/13 03:59:47;;;;;;;1999.90;999.90;;;;;;;16.37;99.31;96740.06;5013262;28;20438;-66
2021/05/13 04:02:29;;;;;;;1999.90;999.90;;;;;;;16.45;98.92;96737.25;5027626;28;20097;-66
2021/05/13 04:04:56;;;;;;;1999.90;999.90;;;;;;;16.43;97.99;96734.06;5022859;28;20523;-66
2021/05/13 04:07:22;;;;;;;1999.90;999.90;;;;;;;16.26;99.15;96735.72;5022342;28;20312;-66
2021/05/13 04:09:50;;;;;;;1999.90;999.90;;;;;;;16.35;98.71;96744.47;5025065;28;20572;-66
2021/05/13 04:12:16;;;;;;;1999.90;999.90;;;;;;;16.41;98.38;96739.28;5024401;28;20131;-66
2021/05/13 04:14:43;;;;;;;1999.90;999.90;;;;;;;16.52;97.60;96734.44;5025154;28;20049;-66
2021/05/13 04:17:10;;;;;;;1999.90;999.90;;;;;;;16.84;96.09;96745.47;5024775;28;20423;-66
2021/05/13 04:19:36;;;;;;;1999.90;999.90;;;;;;;16.98;95.13;96738.25;5025395;28;20049;-67
2021/05/13 04:22:03;;;;;;;1999.90;999.90;;;;;;;17.01;94.91;96734.63;5025328;28;20119;-66
2021/05/13 04:24:31;;;;;;;1999.90;999.90;;;;;;;16.98;94.04;96729.88;5023403;28;20053;-66
2021/05/13 04:26:57;;;;;;;1999.90;999.90;;;;;;;16.97;95.24;96736.63;5025547;28;20041;-66
2021/05/13 04:29:24;;;;;;;1999.90;999.90;;;;;;;16.73;95.58;96734.34;5026318;28;20735;-66
2021/05/13 04:31:51;;;;;;;1999.90;999.90;;;;;;;16.64;96.40;96727.59;5024835;28;20049;-66
2021/05/13 04:34:17;;;;;;;1999.90;999.90;;;;;;;15.98;99.81;96732.59;5032942;28;20046;-66
2021/05/13 04:36:44;;;;;;;1999.90;999.90;;;;;;;16.10;100.00;96717.44;5031626;28;20488;-66
2021/05/13 04:39:11;;;;;;;1999.90;999.90;;;;;;;16.07;100.00;96718.22;5029280;28;20620;-66
2021/05/13 04:41:37;;;;;;;1999.90;999.90;;;;;;;15.71;100.00;96717.47;5022289;28;20444;-66
2021/05/13 04:44:05;;;;;;;1999.90;999.90;;;;;;;16.30;100.00;96714.19;5027990;28;20134;-66
2021/05/13 04:46:33;;;;;;;1999.90;999.90;;;;;;;16.14;99.50;96714.66;5028619;28;20041;-67
2021/05/13 04:51:32;;;;;;;1999.90;999.90;;;;;;;16.05;100.00;96708.69;5026164;28;20503;-66
2021/05/13 04:54:00;;;;;;;1999.90;999.90;;;;;;;15.86;100.00;96719.06;5030542;28;20114;-66
2021/05/13 04:56:28;;;;;;;1999.90;999.90;;;;;;;15.70;100.00;96713.09;5021417;28;20057;-66
2021/05/13 04:58:55;;;;;;;1999.90;999.90;;;;;;;16.23;100.00;96705.88;5026079;28;20049;-66
2021/05/13 05:01:21;;;;;;;1999.90;999.90;;;;;;;16.46;99.66;96695.00;5028565;28;20401;-66
2021/05/13 05:03:48;;;;;;;1999.90;999.90;;;;;;;16.54;98.33;96702.16;5025505;28;20054;-66
2021/05/13 05:06:15;;;;;;;1999.90;999.90;;;;;;;16.68;97.96;96706.06;5027202;28;20139;-66
2021/05/13 05:08:43;;;;;;;1999.90;999.90;;;;;;;16.82;96.87;96700.44;5021842;28;20041;-66
2021/05/13 05:11:10;;;;;;;1999.90;999.90;;;;;;;16.66;97.52;96700.13;5030517;28;20111;-66
2021/05/13 05:13:37;;;;;;;1999.90;999.90;;;;;;;16.76;97.44;96701.25;5028589;28;20056;-66
2021/05/13 05:16:04;;;;;;;1999.90;999.90;;;;;;;16.80;96.81;96685.28;5020951;28;20119;-66
2021/05/13 05:18:31;;;;;;;1999.90;999.90;;;;;;;16.61;97.31;96694.94;5029585;28;20081;-66
2021/05/13 05:20:57;;;;;;;1999.90;999.90;;;;;;;16.38;98.56;96696.25;5028299;28;20489;-66
2021/05/13 05:23:27;;;;;;;1999.90;999.90;;;;;;;16.33;99.84;96694.66;5026983;28;20053;-66
2021/05/13 05:25:54;;;;;;;1999.90;999.90;;;;;;;16.71;97.73;96696.88;5028984;28;20056;-66
2021/05/13 05:28:20;;;;;;;1999.90;999.90;;;;;;;16.33;98.46;96697.44;5027913;28;20625;-66
2021/05/13 05:30:47;;;;;;;1999.90;999.90;;;;;;;16.45;99.08;96699.00;5027726;28;20045;-66
2021/05/13 05:33:13;;;;;;;1999.90;999.90;;;;;;;16.42;98.49;96691.44;5029526;28;20049;-65
2021/05/13 05:35:40;;;;;;;1999.90;999.90;;;;;;;16.28;99.26;96694.28;5028638;28;20057;-66
2021/05/13 05:38:07;;;;;;;1999.90;999.90;;;;;;;16.27;100.00;96692.69;5029776;28;20049;-65
2021/05/13 05:40:35;;;;;;;1999.90;999.90;;;;;;;16.64;97.88;96691.34;5028653;28;20049;-66
2021/05/13 05:43:03;;;;;;;1999.90;999.90;;;;;;;16.02;100.00;96694.34;5022050;28;20152;-66
2021/05/13 05:45:30;;;;;;;1999.90;999.90;;;;;;;16.01;100.00;96689.19;5028963;28;20057;-65
2021/05/13 05:48:01;;;;;;;1999.90;999.90;;;;;;;16.25;100.00;96684.72;5027405;28;20046;-66
2021/05/13 05:50:33;;;;;;;1999.90;999.90;;;;;;;16.54;98.91;96693.78;5029644;28;20102;-66
2021/05/13 05:53:01;;;;;;;1999.90;999.90;;;;;;;16.33;99.40;96685.47;5021568;28;20434;-65
2021/05/13 05:55:28;;;;;;;1999.90;999.90;;;;;;;16.22;100.00;96679.94;5022124;28;20107;-66
2021/05/13 05:57:55;;;;;;;1999.90;999.90;;;;;;;16.10;100.00;96672.81;5019449;28;20088;-66
2021/05/13 06:00:22;;;;;;;1999.90;999.90;;;;;;;15.99;100.00;96674.88;5021963;28;20046;-66
2021/05/13 06:02:49;;;;;;;1999.90;999.90;;;;;;;15.96;100.00;96678.47;5028243;28;20122;-66
2021/05/13 06:05:17;;;;;;;1999.90;999.90;;;;;;;16.41;100.00;96675.13;5031515;28;20124;-67
2021/05/13 06:07:44;;;;;;;1999.90;999.90;;;;;;;16.58;99.08;96667.84;5024113;28;20045;-67
2021/05/13 06:10:13;;;;;;;1999.90;999.90;;;;;;;16.13;100.00;96672.00;5021391;28;20049;-66
2021/05/13 06:12:42;;;;;;;1999.90;999.90;;;;;;;16.31;100.00;96665.59;5029068;28;20049;-66
2021/05/13 06:15:11;;;;;;;1999.90;999.90;;;;;;;16.68;99.15;96667.78;5027351;28;20060;-66
2021/05/13 06:17:39;;;;;;;1999.90;999.90;;;;;;;16.51;98.84;96669.47;5023456;28;20690;-66
2021/05/13 06:20:08;;;;;;;1999.90;999.90;;;;;;;16.95;97.62;96661.69;5030865;28;20057;-67
2021/05/13 06:22:35;;;;;;;1999.90;999.90;;;;;;;17.05;96.56;96660.03;5024146;28;20072;-65
2021/05/13 06:25:01;;;;;;;1999.90;999.90;;;;;;;16.78;97.24;96668.94;5024601;28;20133;-65
2021/05/13 06:27:28;;;;;;;1999.90;999.90;;;;;;;16.48;99.71;96667.50;5029308;28;20045;-66
2021/05/13 06:29:55;;;;;;;1999.90;999.90;;;;;;;16.88;97.68;96665.31;5025674;28;20057;-66
2021/05/13 06:32:22;;;;;;;1999.90;999.90;;;;;;;16.70;97.87;96665.41;5022768;28;20095;-66
2021/05/13 06:34:48;;;;;;;1999.90;999.90;;;;;;;16.70;98.31;96670.16;5018641;28;20065;-66
2021/05/13 06:37:15;;;;;;;1999.90;999.90;;;;;;;16.72;97.18;96670.56;5028183;28;20049;-66
2021/05/13 06:39:41;;;;;;;1999.90;999.90;;;;;;;16.87;96.91;96672.09;5028411;28;20427;-66
2021/05/13 06:42:08;;;;;;;1999.90;999.90;;;;;;;16.81;97.09;96675.72;5022234;28;20115;-66
2021/05/13 06:44:35;;;;;;;1999.90;999.90;;;;;;;16.60;98.29;96679.38;5011200;28;20141;-66
2021/05/13 06:47:02;;;;;;;1999.90;999.90;;;;;;;16.64;97.58;96674.59;5027799;28;20053;-66
2021/05/13 06:49:29;;;;;;;1999.90;999.90;;;;;;;16.68;98.77;96676.16;5024259;28;20088;-66
2021/05/13 06:51:55;;;;;;;1999.90;999.90;;;;;;;17.01;96.99;96676.00;5025911;28;20096;-66
2021/05/13 06:54:23;;;;;;;1999.90;999.90;;;;;;;16.35;100.00;96675.53;5020124;28;20152;-66
2021/05/13 06:56:49;;;;;;;1999.90;999.90;;;;;;;16.92;98.17;96670.09;5029732;28;20114;-66
2021/05/13 06:59:17;;;;;;;1999.90;999.90;;;;;;;17.01;97.00;96667.63;5028234;28;20059;-66
2021/05/13 07:01:43;;;;;;;1999.90;999.90;;;;;;;17.32;96.18;96681.78;5021365;28;20444;-66
2021/05/13 07:04:10;;;;;;;1999.90;999.90;;;;;;;17.12;95.97;96678.72;5027895;28;20053;-66
2021/05/13 07:06:37;;;;;;;1999.90;999.90;;;;;;;16.93;97.14;96675.25;5026740;28;20765;-66
2021/05/13 07:09:07;;;;;;;1999.90;999.90;;;;;;;17.25;95.98;96682.59;5029449;28;20042;-66
2021/05/13 07:11:34;;;;;;;1999.90;999.90;;;;;;;17.02;96.32;96672.81;5025587;28;20460;-66
2021/05/13 07:14:02;;;;;;;1999.90;999.90;;;;;;;16.80;97.59;96669.31;5022599;28;20087;-66
2021/05/13 07:16:29;;;;;;;1999.90;999.90;;;;;;;16.99;97.51;96672.84;5028296;28;20094;-67
2021/05/13 07:18:58;;;;;;;1999.90;999.90;;;;;;;17.06;97.47;96672.78;5027361;28;20547;-66
2021/05/13 07:21:25;;;;;;;1999.90;999.90;;;;;;;17.05;96.63;96671.19;5027522;28;20108;-66
2021/05/13 07:23:52;;;;;;;1999.90;999.90;;;;;;;17.09;96.79;96663.59;4998681;28;20400;-66
2021/05/13 07:26:18;;;;;;;1999.90;999.90;;;;;;;17.32;96.06;96670.59;5024514;28;20041;-67
2021/05/13 07:28:45;;;;;;;1999.90;999.90;;;;;;;17.46;94.67;96667.66;5024530;28;20073;-66
2021/05/13 07:31:12;;;;;;;1999.90;999.90;;;;;;;17.71;93.04;96673.03;5026340;28;20090;-67
2021/05/13 07:33:39;;;;;;;1999.90;999.90;;;;;;;17.82;92.44;96667.38;5027057;28;20104;-66
2021/05/13 07:36:06;;;;;;;1999.90;999.90;;;;;;;16.92;97.35;96670.88;5018298;28;20049;-66
2021/05/13 07:38:34;;;;;;;1999.90;999.90;;;;;;;16.98;97.47;96665.66;5026385;28;20041;-66
2021/05/13 07:41:03;;;;;;;1999.90;999.90;;;;;;;17.01;97.43;96671.19;5021962;28;20476;-66
2021/05/13 07:43:30;;;;;;;1999.90;999.90;;;;;;;17.24;96.62;96659.47;5017291;28;20062;-66
2021/05/13 07:45:57;;;;;;;1999.90;999.90;;;;;;;17.49;95.46;96658.50;5020788;28;20046;-66
2021/05/13 07:48:26;;;;;;;1999.90;999.90;;;;;;;17.59;94.33;96651.97;5023464;28;20115;-66
2021/05/13 07:50:54;;;;;;;1999.90;999.90;;;;;;;17.71;93.41;96655.47;5021752;28;20111;-66
2021/05/13 07:53:20;;;;;;;1999.90;999.90;;;;;;;17.36;94.84;96651.81;5023247;28;20061;-67
2021/05/13 07:55:47;;;;;;;1999.90;999.90;;;;;;;17.65;93.61;96648.75;5022871;28;20091;-66
2021/05/13 07:58:13;;;;;;;1999.90;999.90;;;;;;;17.80;92.78;96661.38;5027095;28;20057;-66
2021/05/13 08:00:40;;;;;;;1999.90;999.90;;;;;;;17.91;92.30;96655.72;5026014;28;20582;-66
2021/05/13 08:03:07;;;;;;;1999.90;999.90;;;;;;;18.00;91.66;96652.41;5025726;28;20084;-66
2021/05/13 08:05:34;;;;;;;1999.90;999.90;;;;;;;17.93;92.28;96659.66;5026964;28;20115;-66
2021/05/13 08:08:01;;;;;;;1999.90;999.90;;;;;;;17.72;93.37;96648.69;5019882;28;20081;-66
2021/05/13 08:10:28;;;;;;;1999.90;999.90;;;;;;;18.05;91.26;96654.75;5022894;28;20049;-66
2021/05/13 08:12:55;;;;;;;1999.90;999.90;;;;;;;18.19;90.56;96648.19;5023331;28;20041;-66
2021/05/13 08:15:22;;;;;;;1999.90;999.90;;;;;;;18.09;91.57;96649.94;5028968;28;20567;-66
2021/05/13 08:17:49;;;;;;;1999.90;999.90;;;;;;;18.36;91.46;96658.38;5028609;28;20045;-65
2021/05/13 08:20:17;;;;;;;1999.90;999.90;;;;;;;18.15;92.13;96648.25;5032924;28;20053;-65
2021/05/13 08:22:47;;;;;;;1999.90;999.90;;;;;;;18.07;92.35;96646.75;5029989;28;20387;-65
2021/05/13 08:25:17;;;;;;;1999.90;999.90;;;;;;;18.00;92.04;96646.81;5024102;28;20095;-66
2021/05/13 08:27:44;;;;;;;1999.90;999.90;;;;;;;17.90;92.59;96640.94;5030858;28;20049;-65
2021/05/13 08:30:11;;;;;;;1999.90;999.90;;;;;;;17.86;93.33;96637.34;5012036;28;20188;-66
2021/05/13 08:32:38;;;;;;;1999.90;999.90;;;;;;;18.40;92.34;96647.16;5030662;28;20115;-66
2021/05/13 08:35:05;;;;;;;1999.90;999.90;;;;;;;18.69;90.02;96647.56;5030654;28;20049;-66
2021/05/13 08:37:31;;;;;;;1999.90;999.90;;;;;;;18.79;89.26;96641.03;5028982;28;20061;-66
2021/05/13 08:39:58;;;;;;;1999.90;999.90;;;;;;;18.18;90.01;96647.41;5023887;28;20080;-67
2021/05/13 08:42:24;;;;;;;1999.90;999.90;;;;;;;18.17;89.78;96654.22;5025626;28;20103;-66
2021/05/13 08:44:52;;;;;;;1999.90;999.90;;;;;;;17.76;91.44;96652.25;5013503;28;20073;-67
2021/05/13 08:47:18;;;;;;;1999.90;999.90;;;;;;;17.75;93.61;96645.84;5013901;28;20053;-66
2021/05/13 08:49:45;;;;;;;1999.90;999.90;;;;;;;18.39;92.13;96639.97;5016403;28;20084;-66
2021/05/13 08:52:13;;;;;;;1999.90;999.90;;;;;;;18.98;88.31;96641.56;5015190;28;20050;-66
2021/05/13 08:54:54;;;;;;;1999.90;999.90;;;;;;;19.12;86.71;96634.97;5002966;28;20108;-66
2021/05/13 08:57:21;;;;;;;1999.90;999.90;;;;;;;19.44;86.37;96644.84;5009181;28;20057;-66
2021/05/13 08:59:48;;;;;;;1999.90;999.90;;;;;;;19.52;83.31;96649.13;5028476;28;20078;-66
2021/05/13 09:02:16;;;;;;;1999.90;999.90;;;;;;;19.67;81.34;96641.28;5015439;28;20054;-67
2021/05/13 09:04:54;;;;;;;1999.90;999.90;;;;;;;19.93;82.25;96642.41;5018600;28;20056;-66
2021/05/13 09:07:25;;;;;;;1999.90;999.90;;;;;;;19.78;84.12;96638.28;5027110;28;20049;-66
2021/05/13 09:10:08;;;;;;;1999.90;999.90;;;;;;;20.15;82.06;96628.75;5030690;28;20049;-66
2021/05/13 09:12:47;;;;;;;1999.90;999.90;;;;;;;20.53;79.70;96638.84;5028341;28;20104;-66
2021/05/13 09:15:16;;;;;;;1999.90;999.90;;;;;;;20.19;78.93;96632.28;5027607;28;20050;-66
2021/05/13 09:17:44;;;;;;;1999.90;999.90;;;;;;;20.26;79.41;96625.75;5031481;28;20107;-66
2021/05/13 09:20:38;;;;;;;1999.90;999.90;;;;;;;20.80;78.01;96623.81;5017479;28;20120;-67
2021/05/13 09:23:26;;;;;;;1999.90;999.90;;;;;;;21.17;76.16;96630.19;5026769;28;20038;-64
2021/05/13 09:26:08;;;;;;;1999.90;999.90;;;;;;;20.57;75.64;96634.72;5031042;28;20057;-64
2021/05/13 09:28:35;;;;;;;1999.90;999.90;;;;;;;20.40;76.39;96631.06;5032982;28;20465;-64
2021/05/13 09:31:03;;;;;;;1999.90;999.90;;;;;;;20.76;74.63;96626.72;5028871;28;20076;-64
2021/05/13 09:33:38;;;;;;;1999.90;999.90;;;;;;;21.50;72.36;96628.22;5023124;28;20056;-64
2021/05/13 09:36:23;;;;;;;1999.90;999.90;;;;;;;21.58;73.44;96623.97;5030190;28;20099;-65
2021/05/13 09:38:50;;;;;;;1999.90;999.90;;;;;;;21.75;72.23;96624.75;5028771;28;20041;-65
2021/05/13 09:41:55;;;;;;;1999.90;999.90;;;;;;;21.96;72.08;96629.00;5022630;28;20045;-65
2021/05/13 09:44:36;;;;;;;1999.90;999.90;;;;;;;22.11;70.45;96615.34;5015314;28;20547;-65
2021/05/13 09:47:16;;;;;;;1999.90;999.90;;;;;;;21.36;71.85;96620.91;5024907;28;20053;-65
2021/05/13 09:50:11;;;;;;;1999.90;999.90;;;;;;;20.17;76.96;96617.09;5027040;28;20050;-65
2021/05/13 09:52:52;;;;;;;1999.90;999.90;;;;;;;20.02;76.03;96609.00;5028383;28;20484;-65
2021/05/13 09:55:33;;;;;;;1999.90;999.90;;;;;;;20.01;76.68;96609.44;5029380;28;20485;-65
2021/05/13 09:58:06;;;;;;;1999.90;999.90;;;;;;;20.01;76.44;96609.44;5029086;28;20061;-65
2021/05/13 10:00:39;;;;;;;1999.90;999.90;;;;;;;20.40;74.71;96608.59;5029423;28;20049;-65
2021/05/13 10:03:12;;;;;;;1999.90;999.90;;;;;;;20.47;76.50;96601.25;5018046;28;20319;-66
2021/05/13 10:05:48;;;;;;;1999.90;999.90;;;;;;;20.77;73.88;96594.63;5025864;28;20046;-66
2021/05/13 10:08:16;;;;;;;1999.90;999.90;;;;;;;20.69;75.95;96591.19;5028857;28;20046;-66
2021/05/13 10:10:43;;;;;;;1999.90;999.90;;;;;;;21.10;74.47;96592.59;5029724;28;20511;-66
2021/05/13 10:13:10;;;;;;;1999.90;999.90;;;;;;;21.39;74.11;96586.28;5030348;28;20473;-65
2021/05/13 10:15:40;;;;;;;1999.90;999.90;;;;;;;21.16;70.67;96589.28;5027773;28;20049;-65
2021/05/13 10:18:28;;;;;;;1999.90;999.90;;;;;;;22.11;69.61;96590.00;5022313;28;20046;-66
2021/05/13 10:20:58;;;;;;;1999.90;999.90;;;;;;;22.44;69.76;96589.09;5028810;28;20050;-66
2021/05/13 10:23:25;;;;;;;1999.90;999.90;;;;;;;22.58;67.21;96594.28;5027962;28;20060;-66
2021/05/13 10:25:52;;;;;;;1999.90;999.90;;;;;;;22.64;68.84;96584.06;5028946;28;20470;-66
2021/05/13 10:28:27;;;;;;;1999.90;999.90;;;;;;;22.60;68.09;96585.38;5025733;28;20090;-66
2021/05/13 10:31:06;;;;;;;1999.90;999.90;;;;;;;22.15;68.88;96579.44;5027704;28;20084;-66
2021/05/13 10:33:46;;;;;;;1999.90;999.90;;;;;;;22.08;68.17;96576.81;5025578;28;20124;-66
2021/05/13 10:36:19;;;;;;;1999.90;999.90;;;;;;;21.07;71.68;96575.84;5021583;28;20064;-66
2021/05/13 10:38:55;;;;;;;1999.90;999.90;;;;;;;20.73;71.70;96575.03;5028021;28;20415;-66
2021/05/13 10:41:28;;;;;;;1999.90;999.90;;;;;;;21.07;71.70;96565.41;5028000;28;20056;-65
2021/05/13 10:43:56;;;;;;;1999.90;999.90;;;;;;;21.21;70.80;96571.88;5012919;28;20111;-66
2021/05/13 10:46:26;;;;;;;1999.90;999.90;;;;;;;21.20;71.79;96568.28;5025861;28;20072;-66
2021/05/13 10:49:16;;;;;;;1999.90;999.90;;;;;;;21.49;71.02;96561.94;5027615;28;20100;-66
2021/05/13 10:51:44;;;;;;;1999.90;999.90;;;;;;;22.03;68.36;96560.47;5015470;28;20068;-66
2021/05/13 10:54:44;;;;;;;1999.90;999.90;;;;;;;22.98;65.49;96553.63;5023938;28;20100;-66
2021/05/13 10:57:14;;;;;;;1999.90;999.90;;;;;;;23.94;62.98;96556.44;5003552;28;20049;-66
2021/05/13 11:00:03;;;;;;;1999.90;999.90;;;;;;;23.63;62.28;96557.13;5011545;28;20041;-66
2021/05/13 11:02:39;;;;;;;1999.90;999.90;;;;;;;22.48;66.51;96565.22;5026734;28;20424;-66
2021/05/13 11:05:38;;;;;;;1999.90;999.90;;;;;;;22.65;67.88;96560.28;5027684;28;20673;-65
2021/05/13 11:08:07;;;;;;;1999.90;999.90;;;;;;;22.21;68.17;96559.19;5024400;28;20057;-66
2021/05/13 11:11:03;;;;;;;1999.90;999.90;;;;;;;21.64;67.73;96562.38;5013755;28;20054;-65